sensor_id;sensor_type;location;lat;lon;timestamp;temperature;humidity
33955;DHT22;20233;50.804;7.126;2023-06-26T00:04:23;23.90;99.90
33955;DHT22;20233;50.804;7.126;2023-06-26T00:06:49;23.90;99.90
33955;DHT22;20233;50.804;7.126;2023-06-26T00:09:14;23.90;99.90
33955;DHT22;20233;50.804;7.126;2023-06-26T00:11:40;23.80;99.90
33955;DHT22;20233;50.804;7.126;2023-06-26T00:14:05;23.80;99.90
33955;DHT22;20233;50.804;7.126;2023-06-26T00:16:31;23.70;99.90
33955;DHT22;20233;50.804;7.126;2023-06-26T00:18:57;23.70;99.90
33955;DHT22;20233;50.804;7.126;2023-06-26T00:21:24;23.60;99.90
33955;DHT22;20233;50.804;7.126;2023-06-26T00:23:50;23.60;99.90
33955;DHT22;20233;50.804;7.126;2023-06-26T00:26:16;23.60;99.90
33955;DHT22;20233;50.804;7.126;2023-06-26T00:28:42;23.50;99.90
33955;DHT22;20233;50.804;7.126;2023-06-26T00:31:07;23.40;99.90
33955;DHT22;20233;50.804;7.126;2023-06-26T00:33:33;23.30;99.90
33955;DHT22;20233;50.804;7.126;2023-06-26T00:35:59;23.30;99.90
33955;DHT22;20233;50.804;7.126;2023-06-26T00:38:24;23.30;99.90
33955;DHT22;20233;50.804;7.126;2023-06-26T00:40:50;23.20;99.90
33955;DHT22;20233;50.804;7.126;2023-06-26T00:43:15;23.10;99.90
33955;DHT22;20233;50.804;7.126;2023-06-26T00:45:41;23.10;99.90
33955;DHT22;20233;50.804;7.126;2023-06-26T00:48:06;23.10;99.90
33955;DHT22;20233;50.804;7.126;2023-06-26T00:50:32;23.00;99.90
33955;DHT22;20233;50.804;7.126;2023-06-26T00:52:59;23.00;99.90
33955;DHT22;20233;50.804;7.126;2023-06-26T00:55:27;23.00;99.90
33955;DHT22;20233;50.804;7.126;2023-06-26T00:57:54;22.90;99.90
33955;DHT22;20233;50.804;7.126;2023-06-26T01:00:20;22.80;99.90
33955;DHT22;20233;50.804;7.126;2023-06-26T01:02:45;22.80;99.90
33955;DHT22;20233;50.804;7.126;2023-06-26T01:05:12;22.80;99.90
33955;DHT22;20233;50.804;7.126;2023-06-26T01:07:38;22.80;99.90
33955;DHT22;20233;50.804;7.126;2023-06-26T01:10:05;22.80;99.90
33955;DHT22;20233;50.804;7.126;2023-06-26T01:12:32;22.70;99.90
33955;DHT22;20233;50.804;7.126;2023-06-26T01:14:59;22.70;99.90
33955;DHT22;20233;50.804;7.126;2023-06-26T01:17:26;22.70;99.90
33955;DHT22;20233;50.804;7.126;2023-06-26T01:19:53;22.70;99.90
33955;DHT22;20233;50.804;7.126;2023-06-26T01:25:13;22.60;99.90
33955;DHT22;20233;50.804;7.126;2023-06-26T01:27:45;22.60;99.90
33955;DHT22;20233;50.804;7.126;2023-06-26T01:30:12;22.50;99.90
33955;DHT22;20233;50.804;7.126;2023-06-26T01:32:38;22.50;99.90
33955;DHT22;20233;50.804;7.126;2023-06-26T01:35:06;22.40;99.90
33955;DHT22;20233;50.804;7.126;2023-06-26T01:37:32;22.40;99.90
33955;DHT22;20233;50.804;7.126;2023-06-26T01:39:58;22.40;99.90
33955;DHT22;20233;50.804;7.126;2023-06-26T01:42:23;22.30;99.90
33955;DHT22;20233;50.804;7.126;2023-06-26T01:44:50;22.30;99.90
33955;DHT22;20233;50.804;7.126;2023-06-26T01:47:21;22.30;99.90
33955;DHT22;20233;50.804;7.126;2023-06-26T01:49:51;22.20;99.90
33955;DHT22;20233;50.804;7.126;2023-06-26T01:52:28;22.20;99.90
33955;DHT22;20233;50.804;7.126;2023-06-26T01:55:10;22.20;99.90
33955;DHT22;20233;50.804;7.126;2023-06-26T01:57:38;22.10;99.90
33955;DHT22;20233;50.804;7.126;2023-06-26T02:00:05;22.10;99.90
33955;DHT22;20233;50.804;7.126;2023-06-26T02:04:57;22.10;99.90
33955;DHT22;20233;50.804;7.126;2023-06-26T02:07:23;22.00;99.90
33955;DHT22;20233;50.804;7.126;2023-06-26T02:09:48;22.00;99.90
33955;DHT22;20233;50.804;7.126;2023-06-26T02:12:14;22.00;99.90
33955;DHT22;20233;50.804;7.126;2023-06-26T02:14:40;22.00;99.90
33955;DHT22;20233;50.804;7.126;2023-06-26T02:17:05;21.90;99.90
33955;DHT22;20233;50.804;7.126;2023-06-26T02:19:32;21.90;99.90
33955;DHT22;20233;50.804;7.126;2023-06-26T02:21:57;21.80;99.90
33955;DHT22;20233;50.804;7.126;2023-06-26T02:24:23;21.80;99.90
33955;DHT22;20233;50.804;7.126;2023-06-26T02:26:48;21.80;99.90
33955;DHT22;20233;50.804;7.126;2023-06-26T02:29:14;21.80;99.90
33955;DHT22;20233;50.804;7.126;2023-06-26T02:31:41;21.70;99.90
33955;DHT22;20233;50.804;7.126;2023-06-26T02:34:07;21.80;99.90
33955;DHT22;20233;50.804;7.126;2023-06-26T02:36:32;21.70;99.90
33955;DHT22;20233;50.804;7.126;2023-06-26T02:38:58;21.70;99.90
33955;DHT22;20233;50.804;7.126;2023-06-26T02:41:24;21.70;99.90
33955;DHT22;20233;50.804;7.126;2023-06-26T02:43:49;21.70;99.90
33955;DHT22;20233;50.804;7.126;2023-06-26T02:46:15;21.60;99.90
33955;DHT22;20233;50.804;7.126;2023-06-26T02:48:40;21.60;99.90
33955;DHT22;20233;50.804;7.126;2023-06-26T02:51:07;21.60;99.90
33955;DHT22;20233;50.804;7.126;2023-06-26T02:53:32;21.60;99.90
33955;DHT22;20233;50.804;7.126;2023-06-26T02:55:58;21.60;99.90
33955;DHT22;20233;50.804;7.126;2023-06-26T02:58:23;21.50;99.90
33955;DHT22;20233;50.804;7.126;2023-06-26T03:00:49;21.50;99.90
33955;DHT22;20233;50.804;7.126;2023-06-26T03:03:14;21.50;99.90
33955;DHT22;20233;50.804;7.126;2023-06-26T03:05:40;21.50;99.90
33955;DHT22;20233;50.804;7.126;2023-06-26T03:08:05;21.50;99.90
33955;DHT22;20233;50.804;7.126;2023-06-26T03:10:31;21.50;99.90
33955;DHT22;20233;50.804;7.126;2023-06-26T03:12:57;21.40;99.90
33955;DHT22;20233;50.804;7.126;2023-06-26T03:15:22;21.50;99.90
33955;DHT22;20233;50.804;7.126;2023-06-26T03:17:48;21.50;99.90
33955;DHT22;20233;50.804;7.126;2023-06-26T03:20:13;21.40;99.90
33955;DHT22;20233;50.804;7.126;2023-06-26T03:22:39;21.40;99.90
33955;DHT22;20233;50.804;7.126;2023-06-26T03:25:04;21.40;99.90
33955;DHT22;20233;50.804;7.126;2023-06-26T03:27:30;21.40;99.90
33955;DHT22;20233;50.804;7.126;2023-06-26T03:29:56;21.40;99.90
33955;DHT22;20233;50.804;7.126;2023-06-26T03:32:21;21.40;99.90
33955;DHT22;20233;50.804;7.126;2023-06-26T03:34:47;21.20;99.90
33955;DHT22;20233;50.804;7.126;2023-06-26T03:37:12;21.30;99.90
33955;DHT22;20233;50.804;7.126;2023-06-26T03:39:38;21.30;99.90
33955;DHT22;20233;50.804;7.126;2023-06-26T03:42:03;21.30;99.90
33955;DHT22;20233;50.804;7.126;2023-06-26T03:44:29;21.40;99.90
33955;DHT22;20233;50.804;7.126;2023-06-26T03:46:55;21.30;99.90
33955;DHT22;20233;50.804;7.126;2023-06-26T03:49:20;21.30;99.90
33955;DHT22;20233;50.804;7.126;2023-06-26T03:51:46;21.30;99.90
33955;DHT22;20233;50.804;7.126;2023-06-26T03:54:12;21.30;99.90
33955;DHT22;20233;50.804;7.126;2023-06-26T03:56:38;21.40;99.90
33955;DHT22;20233;50.804;7.126;2023-06-26T03:59:03;21.40;99.90
33955;DHT22;20233;50.804;7.126;2023-06-26T04:01:29;21.40;99.90
33955;DHT22;20233;50.804;7.126;2023-06-26T04:03:55;21.50;99.90
33955;DHT22;20233;50.804;7.126;2023-06-26T04:06:20;21.60;99.90
33955;DHT22;20233;50.804;7.126;2023-06-26T04:08:46;21.60;99.90
33955;DHT22;20233;50.804;7.126;2023-06-26T04:11:11;21.70;99.90
33955;DHT22;20233;50.804;7.126;2023-06-26T04:13:37;21.70;99.90
33955;DHT22;20233;50.804;7.126;2023-06-26T04:16:03;21.90;99.90
33955;DHT22;20233;50.804;7.126;2023-06-26T04:18:29;21.90;99.90
33955;DHT22;20233;50.804;7.126;2023-06-26T04:21:13;21.90;99.90
33955;DHT22;20233;50.804;7.126;2023-06-26T04:23:40;22.00;99.90
33955;DHT22;20233;50.804;7.126;2023-06-26T04:26:06;22.10;99.90
33955;DHT22;20233;50.804;7.126;2023-06-26T04:28:32;22.20;99.90
33955;DHT22;20233;50.804;7.126;2023-06-26T04:30:59;22.30;99.90
33955;DHT22;20233;50.804;7.126;2023-06-26T04:33:25;22.30;99.90
33955;DHT22;20233;50.804;7.126;2023-06-26T04:35:51;22.40;99.90
33955;DHT22;20233;50.804;7.126;2023-06-26T04:38:17;22.40;99.90
33955;DHT22;20233;50.804;7.126;2023-06-26T04:40:42;22.50;99.90
33955;DHT22;20233;50.804;7.126;2023-06-26T04:43:08;22.50;99.90
33955;DHT22;20233;50.804;7.126;2023-06-26T04:45:33;22.60;99.90
33955;DHT22;20233;50.804;7.126;2023-06-26T04:47:59;22.70;99.90
33955;DHT22;20233;50.804;7.126;2023-06-26T04:50:25;22.80;99.90
33955;DHT22;20233;50.804;7.126;2023-06-26T04:52:51;22.80;99.90
33955;DHT22;20233;50.804;7.126;2023-06-26T04:55:17;22.80;99.90
33955;DHT22;20233;50.804;7.126;2023-06-26T04:57:43;23.00;99.90
33955;DHT22;20233;50.804;7.126;2023-06-26T05:00:09;23.00;99.90
33955;DHT22;20233;50.804;7.126;2023-06-26T05:02:36;23.00;99.90
33955;DHT22;20233;50.804;7.126;2023-06-26T05:05:02;23.20;99.90
33955;DHT22;20233;50.804;7.126;2023-06-26T05:07:27;23.10;99.90
33955;DHT22;20233;50.804;7.126;2023-06-26T05:09:53;23.30;99.90
33955;DHT22;20233;50.804;7.126;2023-06-26T05:12:19;23.20;99.90
33955;DHT22;20233;50.804;7.126;2023-06-26T05:14:44;23.20;99.90
33955;DHT22;20233;50.804;7.126;2023-06-26T05:17:13;23.20;99.90
33955;DHT22;20233;50.804;7.126;2023-06-26T05:19:38;23.30;99.90
33955;DHT22;20233;50.804;7.126;2023-06-26T05:22:04;23.40;99.90
33955;DHT22;20233;50.804;7.126;2023-06-26T05:24:36;23.40;99.90
33955;DHT22;20233;50.804;7.126;2023-06-26T05:27:03;23.50;99.90
33955;DHT22;20233;50.804;7.126;2023-06-26T05:29:30;23.40;99.90
33955;DHT22;20233;50.804;7.126;2023-06-26T05:31:56;23.50;99.90
33955;DHT22;20233;50.804;7.126;2023-06-26T05:34:23;23.50;99.90
33955;DHT22;20233;50.804;7.126;2023-06-26T05:36:50;23.60;99.90
33955;DHT22;20233;50.804;7.126;2023-06-26T05:39:17;23.30;99.90
33955;DHT22;20233;50.804;7.126;2023-06-26T05:41:46;23.60;99.90
33955;DHT22;20233;50.804;7.126;2023-06-26T05:44:12;23.50;99.90
33955;DHT22;20233;50.804;7.126;2023-06-26T05:46:38;23.60;99.90
33955;DHT22;20233;50.804;7.126;2023-06-26T05:49:03;23.70;99.90
33955;DHT22;20233;50.804;7.126;2023-06-26T05:51:29;23.70;99.90
33955;DHT22;20233;50.804;7.126;2023-06-26T05:53:55;23.60;99.90
33955;DHT22;20233;50.804;7.126;2023-06-26T05:56:21;23.70;99.90
33955;DHT22;20233;50.804;7.126;2023-06-26T05:58:47;23.70;99.90
33955;DHT22;20233;50.804;7.126;2023-06-26T06:01:13;23.90;99.90
33955;DHT22;20233;50.804;7.126;2023-06-26T06:03:39;23.70;99.90
33955;DHT22;20233;50.804;7.126;2023-06-26T06:06:05;23.80;99.90
33955;DHT22;20233;50.804;7.126;2023-06-26T06:08:31;23.90;99.90
33955;DHT22;20233;50.804;7.126;2023-06-26T06:10:56;23.90;99.90
33955;DHT22;20233;50.804;7.126;2023-06-26T06:13:22;23.90;99.90
33955;DHT22;20233;50.804;7.126;2023-06-26T06:15:47;23.80;99.90
33955;DHT22;20233;50.804;7.126;2023-06-26T06:18:13;23.80;99.90
33955;DHT22;20233;50.804;7.126;2023-06-26T06:20:39;23.90;99.90
33955;DHT22;20233;50.804;7.126;2023-06-26T06:23:04;23.90;99.90
33955;DHT22;20233;50.804;7.126;2023-06-26T06:25:30;23.90;99.90
33955;DHT22;20233;50.804;7.126;2023-06-26T06:27:55;24.00;99.90
33955;DHT22;20233;50.804;7.126;2023-06-26T06:30:21;24.10;99.90
33955;DHT22;20233;50.804;7.126;2023-06-26T06:32:46;24.20;99.90
33955;DHT22;20233;50.804;7.126;2023-06-26T06:35:17;24.30;99.90
33955;DHT22;20233;50.804;7.126;2023-06-26T06:37:42;24.40;99.90
33955;DHT22;20233;50.804;7.126;2023-06-26T06:40:09;24.40;99.90
33955;DHT22;20233;50.804;7.126;2023-06-26T06:42:35;24.10;99.90
33955;DHT22;20233;50.804;7.126;2023-06-26T06:45:05;23.90;99.90
33955;DHT22;20233;50.804;7.126;2023-06-26T06:47:32;23.70;99.90
33955;DHT22;20233;50.804;7.126;2023-06-26T06:49:58;23.80;99.90
33955;DHT22;20233;50.804;7.126;2023-06-26T06:52:24;23.40;99.90
33955;DHT22;20233;50.804;7.126;2023-06-26T06:54:53;23.40;99.90
33955;DHT22;20233;50.804;7.126;2023-06-26T06:57:20;23.20;99.90
33955;DHT22;20233;50.804;7.126;2023-06-26T06:59:46;23.50;99.90
33955;DHT22;20233;50.804;7.126;2023-06-26T07:02:13;23.50;99.90
33955;DHT22;20233;50.804;7.126;2023-06-26T07:04:38;23.30;99.90
33955;DHT22;20233;50.804;7.126;2023-06-26T07:07:04;23.40;99.90
33955;DHT22;20233;50.804;7.126;2023-06-26T07:09:30;23.10;99.90
33955;DHT22;20233;50.804;7.126;2023-06-26T07:11:55;22.80;99.90
33955;DHT22;20233;50.804;7.126;2023-06-26T07:14:21;22.80;99.90
33955;DHT22;20233;50.804;7.126;2023-06-26T07:16:46;22.90;99.90
33955;DHT22;20233;50.804;7.126;2023-06-26T07:19:12;22.90;99.90
33955;DHT22;20233;50.804;7.126;2023-06-26T07:21:38;22.70;99.90
33955;DHT22;20233;50.804;7.126;2023-06-26T07:24:04;22.10;99.90
33955;DHT22;20233;50.804;7.126;2023-06-26T07:26:30;22.40;99.90
33955;DHT22;20233;50.804;7.126;2023-06-26T07:28:55;22.90;99.90
33955;DHT22;20233;50.804;7.126;2023-06-26T07:31:22;22.90;99.90
33955;DHT22;20233;50.804;7.126;2023-06-26T07:33:47;23.20;99.90
33955;DHT22;20233;50.804;7.126;2023-06-26T07:36:13;23.30;99.90
33955;DHT22;20233;50.804;7.126;2023-06-26T07:38:38;23.40;99.90
33955;DHT22;20233;50.804;7.126;2023-06-26T07:41:04;23.50;99.90
33955;DHT22;20233;50.804;7.126;2023-06-26T07:43:29;23.50;99.90
33955;DHT22;20233;50.804;7.126;2023-06-26T07:45:56;23.80;99.90
33955;DHT22;20233;50.804;7.126;2023-06-26T07:48:24;23.40;99.90
33955;DHT22;20233;50.804;7.126;2023-06-26T07:50:50;23.40;99.90
33955;DHT22;20233;50.804;7.126;2023-06-26T07:53:15;23.30;99.90
33955;DHT22;20233;50.804;7.126;2023-06-26T07:55:42;23.50;99.90
33955;DHT22;20233;50.804;7.126;2023-06-26T07:58:08;23.20;99.90
33955;DHT22;20233;50.804;7.126;2023-06-26T08:00:34;23.40;99.90
33955;DHT22;20233;50.804;7.126;2023-06-26T08:02:59;23.60;99.90
33955;DHT22;20233;50.804;7.126;2023-06-26T08:05:25;23.30;99.90
33955;DHT22;20233;50.804;7.126;2023-06-26T08:07:51;23.30;99.90
33955;DHT22;20233;50.804;7.126;2023-06-26T08:10:17;23.40;99.90
33955;DHT22;20233;50.804;7.126;2023-06-26T08:12:43;23.10;99.90
33955;DHT22;20233;50.804;7.126;2023-06-26T08:15:11;23.60;99.90
33955;DHT22;20233;50.804;7.126;2023-06-26T08:17:37;23.00;99.90
33955;DHT22;20233;50.804;7.126;2023-06-26T08:20:04;22.90;99.90
33955;DHT22;20233;50.804;7.126;2023-06-26T08:22:30;22.90;99.90
33955;DHT22;20233;50.804;7.126;2023-06-26T08:24:56;23.20;99.90
33955;DHT22;20233;50.804;7.126;2023-06-26T08:27:22;23.50;99.90
33955;DHT22;20233;50.804;7.126;2023-06-26T08:29:47;23.60;99.90
33955;DHT22;20233;50.804;7.126;2023-06-26T08:32:13;23.60;99.90
33955;DHT22;20233;50.804;7.126;2023-06-26T08:34:39;23.90;99.90
33955;DHT22;20233;50.804;7.126;2023-06-26T08:37:05;24.10;99.90
33955;DHT22;20233;50.804;7.126;2023-06-26T08:39:30;23.80;99.90
33955;DHT22;20233;50.804;7.126;2023-06-26T08:41:56;23.90;99.90
33955;DHT22;20233;50.804;7.126;2023-06-26T08:44:21;24.20;99.90
33955;DHT22;20233;50.804;7.126;2023-06-26T08:46:50;24.10;99.90
33955;DHT22;20233;50.804;7.126;2023-06-26T08:49:29;24.00;99.90
33955;DHT22;20233;50.804;7.126;2023-06-26T08:52:12;24.40;99.90
33955;DHT22;20233;50.804;7.126;2023-06-26T08:54:45;24.60;99.90
33955;DHT22;20233;50.804;7.126;2023-06-26T08:57:17;24.30;99.90
33955;DHT22;20233;50.804;7.126;2023-06-26T08:59:43;24.20;99.90
33955;DHT22;20233;50.804;7.126;2023-06-26T09:02:10;24.70;99.90
33955;DHT22;20233;50.804;7.126;2023-06-26T09:04:36;24.70;99.90
33955;DHT22;20233;50.804;7.126;2023-06-26T09:07:02;24.60;99.90
33955;DHT22;20233;50.804;7.126;2023-06-26T09:09:28;24.70;99.90
33955;DHT22;20233;50.804;7.126;2023-06-26T09:11:54;24.70;99.90
33955;DHT22;20233;50.804;7.126;2023-06-26T09:14:21;24.20;99.90
33955;DHT22;20233;50.804;7.126;2023-06-26T09:16:46;24.20;99.90
33955;DHT22;20233;50.804;7.126;2023-06-26T09:19:12;24.50;99.90
33955;DHT22;20233;50.804;7.126;2023-06-26T09:21:42;24.70;99.90
33955;DHT22;20233;50.804;7.126;2023-06-26T09:24:09;24.90;99.90
33955;DHT22;20233;50.804;7.126;2023-06-26T09:26:38;25.20;99.90
33955;DHT22;20233;50.804;7.126;2023-06-26T09:29:05;25.00;99.90
33955;DHT22;20233;50.804;7.126;2023-06-26T09:31:32;24.90;99.90
33955;DHT22;20233;50.804;7.126;2023-06-26T09:33:59;24.70;99.90
33955;DHT22;20233;50.804;7.126;2023-06-26T09:36:27;24.80;99.90
33955;DHT22;20233;50.804;7.126;2023-06-26T09:38:53;25.20;99.90
33955;DHT22;20233;50.804;7.126;2023-06-26T09:41:20;24.50;99.90
33955;DHT22;20233;50.804;7.126;2023-06-26T09:43:50;25.00;99.90
33955;DHT22;20233;50.804;7.126;2023-06-26T09:46:17;25.10;99.90
33955;DHT22;20233;50.804;7.126;2023-06-26T09:48:49;25.20;99.90
33955;DHT22;20233;50.804;7.126;2023-06-26T09:51:17;25.50;99.90
33955;DHT22;20233;50.804;7.126;2023-06-26T09:53:48;25.30;99.90
33955;DHT22;20233;50.804;7.126;2023-06-26T09:56:17;25.60;99.90
33955;DHT22;20233;50.804;7.126;2023-06-26T09:58:44;25.50;99.90
33955;DHT22;20233;50.804;7.126;2023-06-26T10:01:09;25.90;99.90
33955;DHT22;20233;50.804;7.126;2023-06-26T10:03:35;26.00;99.90
33955;DHT22;20233;50.804;7.126;2023-06-26T10:06:02;25.80;99.90
33955;DHT22;20233;50.804;7.126;2023-06-26T10:08:28;26.00;99.90
33955;DHT22;20233;50.804;7.126;2023-06-26T10:10:56;26.10;99.90
33955;DHT22;20233;50.804;7.126;2023-06-26T10:13:27;25.70;99.90
33955;DHT22;20233;50.804;7.126;2023-06-26T10:15:54;24.60;99.90
33955;DHT22;20233;50.804;7.126;2023-06-26T10:18:22;25.20;99.90
33955;DHT22;20233;50.804;7.126;2023-06-26T10:20:50;25.40;99.90
33955;DHT22;20233;50.804;7.126;2023-06-26T10:25:48;24.60;99.90
33955;DHT22;20233;50.804;7.126;2023-06-26T10:28:17;24.60;99.90
33955;DHT22;20233;50.804;7.126;2023-06-26T10:30:44;25.00;99.90
33955;DHT22;20233;50.804;7.126;2023-06-26T10:33:12;25.30;99.90
33955;DHT22;20233;50.804;7.126;2023-06-26T10:35:43;25.40;99.90
33955;DHT22;20233;50.804;7.126;2023-06-26T10:38:09;25.50;99.90
33955;DHT22;20233;50.804;7.126;2023-06-26T10:40:45;25.80;99.90
33955;DHT22;20233;50.804;7.126;2023-06-26T10:43:13;24.80;99.90
33955;DHT22;20233;50.804;7.126;2023-06-26T10:45:49;25.10;99.90
33955;DHT22;20233;50.804;7.126;2023-06-26T10:48:19;24.70;99.90
33955;DHT22;20233;50.804;7.126;2023-06-26T10:50:48;25.30;99.90
33955;DHT22;20233;50.804;7.126;2023-06-26T10:58:30;26.20;99.90
33955;DHT22;20233;50.804;7.126;2023-06-26T11:03:41;26.00;99.90
33955;DHT22;20233;50.804;7.126;2023-06-26T11:08:47;26.40;99.90
33955;DHT22;20233;50.804;7.126;2023-06-26T11:11:13;24.80;99.90
33955;DHT22;20233;50.804;7.126;2023-06-26T11:13:40;24.60;99.90
33955;DHT22;20233;50.804;7.126;2023-06-26T11:16:06;25.00;99.90
33955;DHT22;20233;50.804;7.126;2023-06-26T11:18:32;25.40;99.90
33955;DHT22;20233;50.804;7.126;2023-06-26T11:21:11;25.60;99.90
33955;DHT22;20233;50.804;7.126;2023-06-26T11:23:39;25.60;99.90
33955;DHT22;20233;50.804;7.126;2023-06-26T11:26:20;25.90;99.90
33955;DHT22;20233;50.804;7.126;2023-06-26T11:28:52;25.50;99.90
33955;DHT22;20233;50.804;7.126;2023-06-26T11:31:28;25.80;99.90
33955;DHT22;20233;50.804;7.126;2023-06-26T11:34:02;25.60;99.90
33955;DHT22;20233;50.804;7.126;2023-06-26T11:36:28;25.90;99.90
33955;DHT22;20233;50.804;7.126;2023-06-26T11:38:59;25.50;99.90
33955;DHT22;20233;50.804;7.126;2023-06-26T11:41:29;25.40;99.90
33955;DHT22;20233;50.804;7.126;2023-06-26T11:43:54;25.50;99.90
33955;DHT22;20233;50.804;7.126;2023-06-26T11:46:21;24.70;99.90
33955;DHT22;20233;50.804;7.126;2023-06-26T11:48:47;25.20;99.90
33955;DHT22;20233;50.804;7.126;2023-06-26T11:51:17;25.70;99.90
33955;DHT22;20233;50.804;7.126;2023-06-26T11:53:44;25.90;99.90
33955;DHT22;20233;50.804;7.126;2023-06-26T11:56:15;25.40;99.90
33955;DHT22;20233;50.804;7.126;2023-06-26T11:59:01;25.60;99.90
33955;DHT22;20233;50.804;7.126;2023-06-26T12:04:00;26.10;99.90
33955;DHT22;20233;50.804;7.126;2023-06-26T12:06:33;26.40;99.90
33955;DHT22;20233;50.804;7.126;2023-06-26T12:09:01;26.50;99.90
33955;DHT22;20233;50.804;7.126;2023-06-26T12:11:30;26.70;99.90
33955;DHT22;20233;50.804;7.126;2023-06-26T12:13:57;25.90;99.90
33955;DHT22;20233;50.804;7.126;2023-06-26T12:16:22;26.30;99.90
33955;DHT22;20233;50.804;7.126;2023-06-26T12:18:48;26.20;99.90
33955;DHT22;20233;50.804;7.126;2023-06-26T12:24:09;25.90;99.90
33955;DHT22;20233;50.804;7.126;2023-06-26T12:26:36;26.10;99.90
33955;DHT22;20233;50.804;7.126;2023-06-26T12:29:06;26.30;99.90
33955;DHT22;20233;50.804;7.126;2023-06-26T12:31:33;26.30;99.90
33955;DHT22;20233;50.804;7.126;2023-06-26T12:33:59;26.80;99.90
33955;DHT22;20233;50.804;7.126;2023-06-26T12:36:25;27.10;99.90
33955;DHT22;20233;50.804;7.126;2023-06-26T12:38:53;27.20;99.90
33955;DHT22;20233;50.804;7.126;2023-06-26T12:41:19;26.00;99.90
33955;DHT22;20233;50.804;7.126;2023-06-26T12:43:46;25.40;99.90
33955;DHT22;20233;50.804;7.126;2023-06-26T12:46:12;25.60;99.90
33955;DHT22;20233;50.804;7.126;2023-06-26T12:48:41;26.10;99.90
33955;DHT22;20233;50.804;7.126;2023-06-26T12:51:13;26.70;99.90
33955;DHT22;20233;50.804;7.126;2023-06-26T12:53:40;26.90;99.90
33955;DHT22;20233;50.804;7.126;2023-06-26T12:56:07;27.10;99.90
33955;DHT22;20233;50.804;7.126;2023-06-26T12:58:34;26.70;99.90
33955;DHT22;20233;50.804;7.126;2023-06-26T13:01:00;25.40;99.90
33955;DHT22;20233;50.804;7.126;2023-06-26T13:03:25;25.50;99.90
33955;DHT22;20233;50.804;7.126;2023-06-26T13:05:51;25.70;99.90
33955;DHT22;20233;50.804;7.126;2023-06-26T13:08:17;25.30;99.90
33955;DHT22;20233;50.804;7.126;2023-06-26T13:10:44;25.20;99.90
33955;DHT22;20233;50.804;7.126;2023-06-26T13:13:13;25.30;99.90
33955;DHT22;20233;50.804;7.126;2023-06-26T13:15:38;25.50;99.90
33955;DHT22;20233;50.804;7.126;2023-06-26T13:18:04;25.80;99.90
33955;DHT22;20233;50.804;7.126;2023-06-26T13:20:30;25.90;99.90
33955;DHT22;20233;50.804;7.126;2023-06-26T13:22:56;26.30;99.90
33955;DHT22;20233;50.804;7.126;2023-06-26T13:25:22;25.80;99.90
33955;DHT22;20233;50.804;7.126;2023-06-26T13:27:47;25.60;99.90
33955;DHT22;20233;50.804;7.126;2023-06-26T13:30:13;26.00;99.90
33955;DHT22;20233;50.804;7.126;2023-06-26T13:32:39;26.30;99.90
33955;DHT22;20233;50.804;7.126;2023-06-26T13:35:05;26.70;99.90
33955;DHT22;20233;50.804;7.126;2023-06-26T13:37:32;25.90;99.90
33955;DHT22;20233;50.804;7.126;2023-06-26T13:40:00;25.70;99.90
33955;DHT22;20233;50.804;7.126;2023-06-26T13:42:26;25.70;99.90
33955;DHT22;20233;50.804;7.126;2023-06-26T13:44:52;24.90;99.90
33955;DHT22;20233;50.804;7.126;2023-06-26T13:47:18;24.80;99.90
33955;DHT22;20233;50.804;7.126;2023-06-26T13:49:43;24.50;99.90
33955;DHT22;20233;50.804;7.126;2023-06-26T13:52:09;24.50;99.90
33955;DHT22;20233;50.804;7.126;2023-06-26T13:54:35;24.70;99.90
33955;DHT22;20233;50.804;7.126;2023-06-26T13:57:02;24.70;99.90
33955;DHT22;20233;50.804;7.126;2023-06-26T13:59:28;25.20;99.90
33955;DHT22;20233;50.804;7.126;2023-06-26T14:01:54;25.00;99.90
33955;DHT22;20233;50.804;7.126;2023-06-26T14:04:19;25.10;99.90
33955;DHT22;20233;50.804;7.126;2023-06-26T14:06:46;25.20;99.90
33955;DHT22;20233;50.804;7.126;2023-06-26T14:09:11;24.90;99.90
33955;DHT22;20233;50.804;7.126;2023-06-26T14:11:37;24.90;99.90
33955;DHT22;20233;50.804;7.126;2023-06-26T14:14:03;25.50;99.90
33955;DHT22;20233;50.804;7.126;2023-06-26T14:16:28;25.60;99.90
33955;DHT22;20233;50.804;7.126;2023-06-26T14:18:55;25.20;99.90
33955;DHT22;20233;50.804;7.126;2023-06-26T14:21:21;25.20;99.90
33955;DHT22;20233;50.804;7.126;2023-06-26T14:26:12;24.20;99.90
33955;DHT22;20233;50.804;7.126;2023-06-26T14:28:38;24.60;99.90
33955;DHT22;20233;50.804;7.126;2023-06-26T14:31:04;24.90;99.90
33955;DHT22;20233;50.804;7.126;2023-06-26T14:33:30;24.90;99.90
33955;DHT22;20233;50.804;7.126;2023-06-26T14:35:55;25.10;99.90
33955;DHT22;20233;50.804;7.126;2023-06-26T14:38:21;25.60;99.90
33955;DHT22;20233;50.804;7.126;2023-06-26T14:40:47;25.20;99.90
33955;DHT22;20233;50.804;7.126;2023-06-26T14:43:12;25.30;99.90
33955;DHT22;20233;50.804;7.126;2023-06-26T14:45:38;25.80;99.90
33955;DHT22;20233;50.804;7.126;2023-06-26T14:48:04;25.50;99.90
33955;DHT22;20233;50.804;7.126;2023-06-26T14:50:29;25.40;99.90
33955;DHT22;20233;50.804;7.126;2023-06-26T14:52:55;24.90;99.90
33955;DHT22;20233;50.804;7.126;2023-06-26T14:55:20;25.40;99.90
33955;DHT22;20233;50.804;7.126;2023-06-26T14:57:46;24.60;99.90
33955;DHT22;20233;50.804;7.126;2023-06-26T15:00:12;24.60;99.90
33955;DHT22;20233;50.804;7.126;2023-06-26T15:02:37;24.60;99.90
33955;DHT22;20233;50.804;7.126;2023-06-26T15:05:03;24.20;99.90
33955;DHT22;20233;50.804;7.126;2023-06-26T15:07:29;24.30;99.90
33955;DHT22;20233;50.804;7.126;2023-06-26T15:09:54;24.40;99.90
33955;DHT22;20233;50.804;7.126;2023-06-26T15:12:20;24.70;99.90
33955;DHT22;20233;50.804;7.126;2023-06-26T15:14:46;24.90;99.90
33955;DHT22;20233;50.804;7.126;2023-06-26T15:17:11;24.70;99.90
33955;DHT22;20233;50.804;7.126;2023-06-26T15:22:04;24.30;99.90
33955;DHT22;20233;50.804;7.126;2023-06-26T15:26:56;24.10;99.90
33955;DHT22;20233;50.804;7.126;2023-06-26T15:29:21;24.10;99.90
33955;DHT22;20233;50.804;7.126;2023-06-26T15:31:47;24.60;99.90
33955;DHT22;20233;50.804;7.126;2023-06-26T15:34:13;24.70;99.90
33955;DHT22;20233;50.804;7.126;2023-06-26T15:36:39;24.00;99.90
33955;DHT22;20233;50.804;7.126;2023-06-26T15:39:04;23.80;99.90
33955;DHT22;20233;50.804;7.126;2023-06-26T15:41:30;24.00;99.90
33955;DHT22;20233;50.804;7.126;2023-06-26T15:43:55;24.10;99.90
33955;DHT22;20233;50.804;7.126;2023-06-26T15:46:21;24.10;99.90
33955;DHT22;20233;50.804;7.126;2023-06-26T15:48:46;24.40;99.90
33955;DHT22;20233;50.804;7.126;2023-06-26T15:51:13;24.50;99.90
33955;DHT22;20233;50.804;7.126;2023-06-26T15:53:42;24.70;99.90
33955;DHT22;20233;50.804;7.126;2023-06-26T15:56:09;24.50;99.90
33955;DHT22;20233;50.804;7.126;2023-06-26T15:58:36;24.10;99.90
33955;DHT22;20233;50.804;7.126;2023-06-26T16:01:06;24.20;99.90